createdAt,value
2017-11-17T00:04:24.273Z,19.17
2017-11-17T00:09:25.068Z,17.40
2017-11-17T00:14:25.895Z,19.00
2017-11-17T00:35:51.133Z,20.27
2017-11-17T00:40:51.946Z,17.50
2017-11-17T00:45:52.743Z,16.27
2017-11-17T00:50:53.563Z,17.00
2017-11-17T00:55:54.375Z,17.70
2017-11-17T01:00:55.212Z,16.60
2017-11-17T01:05:56.035Z,18.63
2017-11-17T01:10:56.863Z,17.57
2017-11-17T01:15:57.670Z,16.63
2017-11-17T01:20:58.467Z,15.40
2017-11-17T01:25:59.296Z,16.60
2017-11-17T01:31:00.101Z,16.23
2017-11-17T01:36:00.915Z,17.30
2017-11-17T01:41:01.723Z,17.80
2017-11-17T01:46:02.547Z,17.10
2017-11-17T01:51:03.407Z,15.90
2017-11-17T01:56:04.219Z,18.30
2017-11-17T02:01:05.023Z,16.20
2017-11-17T02:06:05.823Z,16.37
2017-11-17T02:11:09.850Z,18.20
2017-11-17T02:16:10.718Z,15.97
2017-11-17T02:21:11.631Z,20.10
2017-11-17T02:26:12.524Z,16.77
2017-11-17T02:31:13.552Z,16.10
2017-11-17T02:36:14.431Z,17.30
2017-11-17T02:41:15.286Z,17.07
2017-11-17T02:46:16.359Z,16.97
2017-11-17T02:51:17.213Z,16.57
2017-11-17T02:56:18.160Z,17.00
2017-11-17T03:01:19.079Z,16.80
2017-11-17T03:06:19.947Z,18.27
2017-11-17T03:11:20.820Z,15.63
2017-11-17T03:16:21.730Z,14.33
2017-11-17T03:21:22.621Z,18.40
2017-11-17T03:26:23.519Z,15.50
2017-11-17T03:31:24.421Z,16.23
2017-11-17T03:36:25.320Z,17.00
2017-11-17T03:41:26.179Z,16.10
2017-11-17T03:46:27.136Z,17.03
2017-11-17T03:51:28.017Z,16.83
2017-11-17T03:56:28.911Z,17.80
2017-11-17T04:01:29.785Z,18.93
2017-11-17T04:06:30.687Z,17.30
2017-11-17T04:11:31.575Z,17.60
2017-11-17T04:16:32.402Z,16.43
2017-11-17T04:21:33.301Z,18.90
2017-11-17T04:26:34.175Z,18.20
2017-11-17T04:31:35.044Z,16.07
2017-11-17T04:36:35.943Z,17.90
2017-11-17T04:41:36.796Z,16.83
2017-11-17T04:46:37.772Z,17.50
2017-11-17T04:51:38.726Z,17.90
2017-11-17T04:56:39.605Z,15.50
2017-11-17T05:01:40.489Z,16.03
2017-11-17T05:06:41.341Z,15.97
2017-11-17T05:11:42.203Z,14.03
2017-11-17T05:16:43.073Z,15.67
2017-11-17T05:21:44.016Z,16.53
2017-11-17T05:26:44.901Z,15.20
2017-11-17T05:31:45.802Z,13.57
2017-11-17T05:36:46.628Z,14.10
2017-11-17T05:41:47.488Z,14.90
2017-11-17T05:46:48.371Z,15.10
2017-11-17T05:51:49.231Z,15.10
2017-11-17T05:56:50.177Z,14.70
2017-11-17T06:01:51.042Z,16.37
2017-11-17T06:06:51.911Z,14.20
2017-11-17T06:11:52.847Z,14.40
2017-11-17T06:16:53.799Z,15.10
2017-11-17T06:21:54.710Z,15.53
2017-11-17T06:26:55.611Z,14.37
2017-11-17T06:31:56.445Z,13.63
2017-11-17T06:36:57.345Z,14.90
2017-11-17T06:41:58.204Z,16.07
2017-11-17T06:46:59.128Z,14.80
2017-11-17T06:52:00.002Z,14.50
2017-11-17T06:57:00.865Z,14.63
2017-11-17T07:02:01.900Z,14.20
2017-11-17T07:07:02.746Z,13.97
2017-11-17T07:12:03.643Z,14.83
2017-11-17T07:17:04.493Z,12.67
2017-11-17T07:22:05.366Z,13.83
2017-11-17T07:27:06.243Z,13.97
2017-11-17T07:32:07.093Z,13.13
2017-11-17T07:37:07.955Z,13.53
2017-11-17T07:42:09.038Z,13.83
2017-11-17T07:47:09.920Z,12.80
2017-11-17T07:52:10.774Z,13.00
2017-11-17T07:57:11.651Z,12.07
2017-11-17T08:02:12.515Z,12.50
2017-11-17T08:07:13.394Z,12.90
2017-11-17T08:12:14.241Z,13.43
2017-11-17T08:17:23.256Z,13.23
2017-11-17T08:22:24.103Z,12.03
2017-11-17T08:27:25.257Z,13.97
2017-11-17T08:32:26.156Z,13.73
2017-11-17T08:37:27.105Z,12.80
2017-11-17T08:42:28.229Z,12.80
2017-11-17T08:47:29.080Z,13.80
2017-11-17T08:52:29.932Z,14.30
2017-11-17T08:57:31.077Z,14.50
2017-11-17T09:02:31.969Z,14.40
2017-11-17T09:07:32.863Z,13.97
2017-11-17T09:12:33.719Z,14.80
2017-11-17T09:17:34.619Z,14.87
2017-11-17T09:22:41.361Z,13.30
2017-11-17T09:27:42.485Z,14.10
2017-11-17T09:32:43.456Z,14.87
2017-11-17T09:37:44.478Z,14.27
2017-11-17T09:42:45.384Z,13.90
2017-11-17T09:47:46.259Z,13.77
2017-11-17T09:52:47.190Z,13.53
2017-11-17T09:57:48.053Z,12.87
2017-11-17T10:02:48.943Z,12.83
2017-11-17T10:07:50.032Z,15.60
2017-11-17T10:12:50.932Z,13.07
2017-11-17T10:17:51.791Z,12.87
2017-11-17T10:22:52.703Z,13.93
2017-11-17T10:27:53.752Z,13.13
2017-11-17T10:32:54.633Z,13.70
2017-11-17T10:37:55.525Z,12.80
2017-11-17T10:42:56.608Z,14.37
2017-11-17T10:47:57.464Z,14.60
2017-11-17T10:52:58.363Z,12.43
2017-11-17T10:57:59.286Z,14.07
2017-11-17T11:03:00.160Z,12.07
2017-11-17T11:08:02.129Z,13.03
2017-11-17T11:13:02.967Z,13.50
2017-11-17T11:18:03.863Z,12.13
2017-11-17T11:23:04.735Z,11.57
2017-11-17T11:28:05.651Z,12.33
2017-11-17T11:33:06.499Z,12.03
2017-11-17T11:38:07.334Z,10.57
2017-11-17T11:43:08.237Z,11.50
2017-11-17T11:48:09.136Z,10.80
2017-11-17T11:53:10.303Z,11.27
2017-11-17T11:58:11.316Z,10.47
2017-11-17T12:03:12.152Z,11.20
2017-11-17T12:08:13.042Z,10.70
2017-11-17T12:13:13.892Z,10.43
2017-11-17T12:18:14.704Z,10.77
2017-11-17T12:23:15.526Z,11.27
2017-11-17T12:28:16.411Z,11.57
2017-11-17T12:33:17.277Z,11.87
2017-11-17T12:38:18.114Z,11.03
2017-11-17T12:43:18.966Z,11.10
2017-11-17T12:48:20.202Z,11.30
2017-11-17T13:04:35.501Z,11.30
2017-11-17T13:09:36.335Z,12.80
2017-11-17T13:14:37.244Z,11.60
2017-11-17T13:19:38.122Z,11.50
2017-11-17T13:24:46.567Z,10.90
2017-11-17T13:29:47.523Z,10.80
2017-11-17T13:34:52.763Z,10.13
2017-11-17T13:39:57.323Z,11.20
2017-11-17T13:44:58.155Z,11.80
2017-11-17T13:49:59.067Z,11.27
2017-11-17T13:55:03.521Z,11.17
2017-11-17T14:00:19.854Z,10.83
2017-11-17T14:05:21.066Z,11.10
2017-11-17T14:10:22.371Z,11.53
2017-11-17T14:15:23.393Z,10.40
2017-11-17T14:20:24.360Z,12.60
2017-11-17T14:25:26.527Z,10.50
2017-11-17T14:30:32.196Z,9.93
2017-11-17T14:35:33.064Z,9.27
2017-11-17T14:40:33.983Z,11.10
2017-11-17T14:45:35.881Z,9.83
2017-11-17T14:50:36.853Z,11.80
2017-11-17T14:55:37.799Z,11.00
2017-11-17T15:00:38.724Z,11.50
2017-11-17T15:05:39.651Z,12.37
2017-11-17T15:10:40.558Z,11.20
2017-11-17T15:15:41.543Z,11.30
2017-11-17T15:20:42.444Z,12.27
2017-11-17T15:25:43.312Z,14.93
2017-11-17T15:30:45.190Z,12.37
2017-11-17T15:35:46.084Z,10.90
2017-11-17T15:40:46.984Z,11.37
2017-11-17T15:45:48.018Z,13.53
2017-11-17T15:50:49.111Z,12.60
2017-11-17T15:55:50.017Z,13.30
2017-11-17T16:00:50.957Z,11.50
2017-11-17T16:05:51.834Z,12.40
2017-11-17T16:10:52.710Z,12.23
2017-11-17T16:15:53.557Z,11.57
2017-11-17T16:20:54.695Z,10.73
2017-11-17T16:25:55.692Z,11.57
2017-11-17T16:31:00.216Z,11.40
2017-11-17T16:36:01.122Z,12.30
2017-11-17T16:41:02.002Z,12.70
2017-11-17T16:46:02.923Z,14.80
2017-11-17T16:51:03.791Z,11.10
2017-11-17T16:56:04.659Z,11.67
2017-11-17T17:01:05.727Z,13.20
2017-11-17T17:06:06.631Z,14.63
2017-11-17T17:11:07.695Z,15.00
2017-11-17T17:16:21.788Z,14.47
2017-11-17T17:21:22.696Z,15.20
2017-11-17T17:26:37.020Z,14.17
2017-11-17T17:31:39.868Z,17.50
2017-11-17T17:36:40.784Z,14.90
2017-11-17T17:41:42.935Z,13.80
2017-11-17T17:46:46.366Z,14.97
2017-11-17T17:51:57.376Z,14.77
2017-11-17T17:56:59.215Z,14.40
2017-11-17T18:02:00.139Z,14.77
2017-11-17T18:07:00.972Z,14.13
2017-11-17T18:12:04.200Z,13.23
2017-11-17T18:17:05.171Z,15.10
2017-11-17T18:22:06.143Z,15.70
2017-11-17T18:27:07.009Z,13.93
2017-11-17T18:32:08.245Z,16.50
2017-11-17T18:37:09.433Z,14.30
2017-11-17T18:42:20.928Z,18.43
2017-11-17T18:47:21.900Z,13.43
2017-11-17T18:52:23.806Z,15.03
2017-11-17T18:57:24.714Z,15.30
2017-11-17T19:02:25.838Z,14.67
2017-11-17T19:07:26.777Z,14.97
2017-11-17T19:12:27.728Z,14.63
2017-11-17T19:17:30.428Z,15.57
2017-11-17T19:22:31.314Z,14.77
2017-11-17T19:27:32.544Z,15.27
2017-11-17T19:32:33.712Z,14.23
2017-11-17T19:37:34.995Z,15.27
2017-11-17T19:42:35.932Z,14.27
2017-11-17T19:47:37.034Z,14.13
2017-11-17T19:52:38.218Z,15.07
2017-11-17T19:57:51.453Z,15.10
2017-11-17T20:02:52.303Z,15.97
2017-11-17T20:07:53.228Z,16.37
2017-11-17T20:12:56.592Z,15.27
2017-11-17T20:17:57.530Z,15.87
2017-11-17T20:22:58.400Z,16.20
2017-11-17T20:27:59.602Z,16.90
2017-11-17T20:33:00.574Z,14.47
2017-11-17T20:38:01.522Z,16.50
2017-11-17T20:43:03.483Z,16.30
2017-11-17T20:48:04.483Z,15.33
2017-11-17T20:53:05.402Z,16.97
2017-11-17T20:58:07.105Z,15.90
2017-11-17T21:03:08.613Z,15.73
2017-11-17T21:08:09.655Z,15.80
2017-11-17T21:13:10.737Z,16.20
2017-11-17T21:18:15.417Z,15.70
2017-11-17T21:23:19.712Z,15.80
2017-11-17T21:28:20.615Z,17.97
2017-11-17T21:33:21.823Z,17.17
2017-11-17T21:38:23.119Z,18.07
2017-11-17T21:43:24.330Z,17.10
2017-11-17T21:48:25.283Z,16.60
2017-11-17T21:53:26.168Z,17.60
2017-11-17T21:58:27.001Z,16.00
2017-11-17T22:03:28.168Z,14.67
2017-11-17T22:08:29.061Z,17.10
2017-11-17T22:13:29.954Z,16.53
2017-11-17T22:18:30.852Z,15.83
2017-11-17T22:23:31.733Z,16.03
2017-11-17T22:28:32.891Z,14.90
2017-11-17T22:33:34.210Z,12.50
2017-11-17T22:38:35.507Z,16.37
2017-11-17T22:43:36.763Z,16.00
2017-11-17T22:48:37.901Z,15.93
2017-11-17T22:53:39.136Z,13.23
2017-11-17T22:58:40.058Z,16.00
2017-11-17T23:03:41.022Z,15.10
2017-11-17T23:08:41.936Z,13.80
2017-11-17T23:13:42.751Z,15.80
2017-11-17T23:18:43.599Z,16.93
2017-11-17T23:23:44.456Z,18.00
2017-11-17T23:28:45.362Z,17.40
2017-11-17T23:33:46.290Z,17.40
2017-11-17T23:38:47.183Z,14.90
2017-11-17T23:43:48.098Z,16.37
2017-11-17T23:48:48.939Z,18.67
2017-11-17T23:53:49.817Z,18.57
2017-11-17T23:58:50.690Z,19.53
